Time;durP1;ratioP1;P1;durP2;ratioP2;P2;SDS_P1;SDS_P2;PMS_P1;PMS_P2;Temp;Humidity;BMP_temperature;BMP_pressure;BME280_temperature;BME280_humidity;BME280_pressure;Samples;Min_cycle;Max_cycle;Signal;HPM_P1;HPM_P2
2021/10/24 00:01:19;;;;;;;133.70;37.53;;;1.80;99.90;;;;;;4445579;28;658525;-69
2021/10/24 00:04:07;;;;;;;99.23;29.13;;;1.80;99.90;;;;;;4427043;28;660074;-69
2021/10/24 00:06:56;;;;;;;85.23;27.37;;;1.80;99.90;;;;;;4440495;28;657436;-69
2021/10/24 00:09:44;;;;;;;55.53;23.33;;;1.80;99.90;;;;;;4416912;28;658839;-70
2021/10/24 00:12:31;;;;;;;84.30;27.93;;;1.80;99.90;;;;;;4415139;28;657774;-68
2021/10/24 00:15:19;;;;;;;52.53;23.97;;;1.80;99.90;;;;;;4440112;28;658647;-69
2021/10/24 00:18:07;;;;;;;72.63;27.10;;;1.80;99.90;;;;;;4420790;28;658589;-68
2021/10/24 00:20:54;;;;;;;129.53;34.63;;;1.90;99.90;;;;;;4439688;28;658105;-69
2021/10/24 00:23:44;;;;;;;55.37;23.40;;;2.00;99.90;;;;;;4421761;28;658816;-69
2021/10/24 00:26:31;;;;;;;53.53;22.80;;;2.00;99.90;;;;;;4436113;28;657590;-68
2021/10/24 00:29:19;;;;;;;59.23;24.13;;;2.10;99.90;;;;;;4442621;28;658578;-68
2021/10/24 00:32:07;;;;;;;60.55;25.65;;;2.10;99.90;;;;;;4422704;28;657672;-67
2021/10/24 00:34:55;;;;;;;100.87;33.33;;;2.20;99.90;;;;;;4443434;28;658332;-68
2021/10/24 00:37:42;;;;;;;60.27;24.63;;;2.20;99.90;;;;;;4413981;28;660347;-68
2021/10/24 00:40:32;;;;;;;60.17;26.10;;;2.30;99.90;;;;;;4446224;28;658057;-67
2021/10/24 00:43:20;;;;;;;55.83;23.57;;;2.30;99.90;;;;;;4445614;28;658162;-68
2021/10/24 00:46:07;;;;;;;52.93;22.53;;;2.40;99.90;;;;;;4428043;28;658723;-68
2021/10/24 00:48:55;;;;;;;54.90;23.17;;;2.50;99.90;;;;;;4453655;28;658816;-68
2021/10/24 00:51:42;;;;;;;52.17;22.30;;;2.50;99.90;;;;;;4432501;28;659343;-68
2021/10/24 00:54:30;;;;;;;42.40;19.13;;;2.70;99.90;;;;;;4436500;28;657919;-68
2021/10/24 00:57:19;;;;;;;62.73;23.37;;;2.80;99.90;;;;;;4423495;28;658385;-68
2021/10/24 01:00:08;;;;;;;50.40;21.42;;;2.90;99.90;;;;;;4425258;28;657762;-67
2021/10/24 01:02:56;;;;;;;46.93;21.70;;;3.00;99.90;;;;;;4425865;28;657956;-67
2021/10/24 01:05:44;;;;;;;77.83;28.17;;;3.00;99.90;;;;;;4453213;28;658157;-69
2021/10/24 01:08:31;;;;;;;64.47;26.17;;;3.10;99.90;;;;;;4418758;28;657677;-72
2021/10/24 01:11:19;;;;;;;53.90;21.50;;;3.20;99.90;;;;;;4445156;28;658438;-71
2021/10/24 01:14:08;;;;;;;46.47;20.17;;;3.20;99.90;;;;;;4422427;28;657435;-72
2021/10/24 01:16:56;;;;;;;50.70;19.93;;;3.30;99.90;;;;;;4417375;28;658286;-72
2021/10/24 01:19:43;;;;;;;46.87;20.17;;;3.40;99.90;;;;;;4439522;28;657785;-72
2021/10/24 01:22:34;;;;;;;40.70;18.53;;;3.40;99.90;;;;;;4421974;28;658256;-72
2021/10/24 01:25:22;;;;;;;45.57;19.27;;;3.40;99.90;;;;;;4412962;28;658257;-71
2021/10/24 01:28:10;;;;;;;46.97;18.00;;;3.50;99.90;;;;;;4447199;28;658569;-71
2021/10/24 01:30:57;;;;;;;45.17;19.47;;;3.50;99.90;;;;;;4420648;28;657778;-72
2021/10/24 01:33:46;;;;;;;48.07;18.53;;;3.60;99.90;;;;;;4438984;28;657497;-73
2021/10/24 01:36:33;;;;;;;38.40;17.77;;;3.60;99.90;;;;;;4446798;28;658883;-72
2021/10/24 01:39:22;;;;;;;40.07;18.73;;;3.70;99.90;;;;;;4415887;28;658244;-72
2021/10/24 01:42:11;;;;;;;42.20;16.83;;;3.60;99.90;;;;;;4435676;28;658092;-73
2021/10/24 01:44:59;;;;;;;38.87;17.30;;;3.60;99.90;;;;;;4446712;28;658390;-72
2021/10/24 01:47:47;;;;;;;39.63;18.37;;;3.60;99.90;;;;;;4419668;28;657788;-72
2021/10/24 01:50:35;;;;;;;45.77;17.43;;;3.50;99.90;;;;;;4445316;28;657741;-71
2021/10/24 01:53:23;;;;;;;39.73;16.97;;;3.50;99.90;;;;;;4427559;28;659080;-72
2021/10/24 01:56:12;;;;;;;38.35;16.65;;;3.50;99.90;;;;;;4413213;28;658893;-72
2021/10/24 01:59:00;;;;;;;37.47;16.90;;;3.40;99.90;;;;;;4441707;28;658310;-73
2021/10/24 02:01:47;;;;;;;39.17;16.40;;;3.30;99.90;;;;;;4415681;28;658884;-72
2021/10/24 02:04:35;;;;;;;41.07;16.70;;;3.20;99.90;;;;;;4435947;28;657961;-72
2021/10/24 02:07:22;;;;;;;38.93;16.53;;;3.10;99.90;;;;;;4419679;28;658380;-72
2021/10/24 02:10:12;;;;;;;40.63;14.90;;;3.00;99.90;;;;;;4435205;28;658273;-72
2021/10/24 02:13:01;;;;;;;40.43;15.47;;;2.90;99.90;;;;;;4415374;28;657731;-72
2021/10/24 02:15:49;;;;;;;38.13;14.48;;;2.80;99.90;;;;;;4412993;28;658740;-71
2021/10/24 02:18:36;;;;;;;36.47;14.50;;;2.80;99.90;;;;;;4415525;28;657731;-72
2021/10/24 02:21:24;;;;;;;34.40;14.33;;;2.70;99.90;;;;;;4438581;28;657901;-72
2021/10/24 02:24:12;;;;;;;38.57;14.13;;;2.60;99.90;;;;;;4423800;28;658380;-71
2021/10/24 02:26:59;;;;;;;33.80;14.83;;;2.50;99.90;;;;;;4443956;28;657504;-72
2021/10/24 02:29:48;;;;;;;36.83;14.53;;;2.40;99.90;;;;;;4413606;28;658327;-72
2021/10/24 02:32:36;;;;;;;36.50;14.80;;;2.30;99.90;;;;;;4421829;28;657992;-72
2021/10/24 02:35:25;;;;;;;40.47;15.03;;;2.30;99.90;;;;;;4438108;28;657946;-72
2021/10/24 02:38:13;;;;;;;37.37;14.40;;;2.30;99.90;;;;;;4417820;28;658904;-71
2021/10/24 02:41:00;;;;;;;33.43;14.63;;;2.20;99.90;;;;;;4428895;28;657752;-72
2021/10/24 02:43:48;;;;;;;34.97;14.73;;;2.20;99.90;;;;;;4448362;28;659345;-71
2021/10/24 02:46:37;;;;;;;40.40;15.00;;;2.10;99.90;;;;;;4414453;28;657954;-72
2021/10/24 02:49:25;;;;;;;33.25;14.05;;;2.00;99.90;;;;;;4445922;28;658643;-72
2021/10/24 02:52:12;;;;;;;37.07;14.23;;;1.90;99.90;;;;;;4423815;28;658301;-72
2021/10/24 02:55:00;;;;;;;34.73;14.80;;;1.90;99.90;;;;;;4444472;28;657719;-72
2021/10/24 02:57:47;;;;;;;34.07;13.70;;;1.90;99.90;;;;;;4426772;28;658891;-71
2021/10/24 03:00:35;;;;;;;37.47;13.93;;;1.80;99.90;;;;;;4439648;28;658745;-71
2021/10/24 03:03:24;;;;;;;28.80;13.90;;;1.70;99.90;;;;;;4416507;28;657642;-71
2021/10/24 03:06:12;;;;;;;35.03;14.23;;;1.70;99.90;;;;;;4422987;28;657417;-72
2021/10/24 03:08:59;;;;;;;37.93;14.63;;;1.60;99.90;;;;;;4447895;28;657818;-72
2021/10/24 03:11:47;;;;;;;38.50;14.53;;;1.60;99.90;;;;;;4425303;28;658000;-72
2021/10/24 03:14:35;;;;;;;39.47;13.90;;;1.50;99.90;;;;;;4437937;28;658047;-71
2021/10/24 03:17:22;;;;;;;31.50;13.27;;;1.50;99.90;;;;;;4423692;28;658361;-71
2021/10/24 03:20:12;;;;;;;32.03;14.23;;;1.50;99.90;;;;;;4442120;28;658144;-71
2021/10/24 03:22:59;;;;;;;36.73;14.40;;;1.50;99.90;;;;;;4413390;28;657451;-72
2021/10/24 03:25:49;;;;;;;172.03;43.47;;;1.40;99.90;;;;;;4422427;28;657710;-72
2021/10/24 03:28:36;;;;;;;103.43;33.00;;;1.40;99.90;;;;;;4417937;28;658647;-71
2021/10/24 03:31:24;;;;;;;90.07;26.87;;;1.30;99.90;;;;;;4443188;28;659647;-71
2021/10/24 03:34:11;;;;;;;62.37;22.23;;;1.30;99.90;;;;;;4422165;28;657749;-71
2021/10/24 03:37:00;;;;;;;78.23;24.17;;;1.30;99.90;;;;;;4446606;28;658078;-71
2021/10/24 03:39:48;;;;;;;52.70;20.03;;;1.20;99.90;;;;;;4419471;28;658407;-71
2021/10/24 03:42:36;;;;;;;52.95;19.83;;;1.20;99.90;;;;;;4426035;28;658808;-72
2021/10/24 03:45:24;;;;;;;64.70;21.93;;;1.10;99.90;;;;;;4445829;28;658142;-71
2021/10/24 03:48:11;;;;;;;64.33;19.83;;;1.00;99.90;;;;;;4423604;28;657856;-71
2021/10/24 03:50:59;;;;;;;52.90;20.40;;;1.00;99.90;;;;;;4439012;28;658768;-71
2021/10/24 03:53:48;;;;;;;64.23;20.70;;;1.00;99.90;;;;;;4426920;28;657658;-72
2021/10/24 03:56:36;;;;;;;98.25;26.55;;;1.00;99.90;;;;;;4420654;28;658667;-72
2021/10/24 03:59:23;;;;;;;57.30;19.37;;;1.00;99.90;;;;;;4445775;28;657777;-71
2021/10/24 04:02:11;;;;;;;72.40;21.67;;;1.00;99.90;;;;;;4417478;28;658304;-72
2021/10/24 04:04:58;;;;;;;53.00;19.10;;;1.00;99.90;;;;;;4438417;28;657874;-71
2021/10/24 04:07:47;;;;;;;62.10;20.10;;;1.00;99.90;;;;;;4424650;28;657725;-72
2021/10/24 04:10:36;;;;;;;52.10;18.70;;;1.00;99.90;;;;;;4443854;28;657160;-72
2021/10/24 04:13:24;;;;;;;48.40;17.83;;;1.00;99.90;;;;;;4424756;28;658114;-71
2021/10/24 04:16:12;;;;;;;42.07;17.60;;;1.10;99.90;;;;;;4426113;28;657729;-71
2021/10/24 04:18:59;;;;;;;40.97;17.87;;;1.20;99.90;;;;;;4451212;28;658189;-72
2021/10/24 04:21:47;;;;;;;41.90;17.33;;;1.30;99.90;;;;;;4421007;28;658071;-72
2021/10/24 04:24:34;;;;;;;47.03;19.17;;;1.40;99.90;;;;;;4437972;28;658026;-71
2021/10/24 04:27:23;;;;;;;46.87;18.80;;;1.50;99.90;;;;;;4417555;28;657930;-71
2021/10/24 04:30:11;;;;;;;41.47;18.03;;;1.50;99.90;;;;;;4421229;28;658350;-71
2021/10/24 04:32:59;;;;;;;56.37;19.50;;;1.70;99.90;;;;;;4434069;28;657552;-71
2021/10/24 04:35:47;;;;;;;42.50;17.87;;;1.70;99.90;;;;;;4412371;28;657058;-71
2021/10/24 04:38:34;;;;;;;43.17;18.47;;;1.70;99.90;;;;;;4433027;28;657847;-72
2021/10/24 04:41:22;;;;;;;37.30;17.53;;;1.80;99.90;;;;;;4420480;28;657972;-71
2021/10/24 04:44:11;;;;;;;39.90;17.93;;;1.90;99.90;;;;;;4442372;28;658087;-71
2021/10/24 04:46:59;;;;;;;48.07;19.27;;;1.90;99.90;;;;;;4427073;28;658537;-71
2021/10/24 04:49:47;;;;;;;37.90;18.50;;;2.00;99.90;;;;;;4426306;28;657962;-71
2021/10/24 04:52:34;;;;;;;44.10;21.23;;;2.10;99.90;;;;;;4433225;28;657757;-71
2021/10/24 04:55:22;;;;;;;43.27;19.87;;;2.20;99.90;;;;;;4414602;28;659815;-72
2021/10/24 04:58:10;;;;;;;39.40;18.10;;;2.30;99.90;;;;;;4440895;28;658218;-71
2021/10/24 05:00:59;;;;;;;61.83;23.50;;;2.30;99.90;;;;;;4424866;28;659024;-71
2021/10/24 05:03:48;;;;;;;73.70;26.05;;;2.40;99.90;;;;;;4419992;28;657381;-71
2021/10/24 05:06:36;;;;;;;71.93;25.30;;;2.50;99.90;;;;;;4414880;28;659711;-71
2021/10/24 05:09:23;;;;;;;81.43;27.07;;;2.50;99.90;;;;;;4438040;28;658066;-71
2021/10/24 05:12:11;;;;;;;89.80;26.40;;;2.70;99.90;;;;;;4420572;28;658783;-72
2021/10/24 05:14:58;;;;;;;73.43;26.27;;;2.70;99.90;;;;;;4442849;28;657617;-71
2021/10/24 05:17:47;;;;;;;95.27;28.37;;;2.80;99.90;;;;;;4417534;28;657922;-72
2021/10/24 05:20:35;;;;;;;90.33;29.87;;;2.90;99.90;;;;;;4433988;28;657444;-72
2021/10/24 05:23:24;;;;;;;97.17;29.00;;;2.90;99.90;;;;;;4443235;28;658388;-71
2021/10/24 05:26:11;;;;;;;93.40;27.27;;;2.90;99.90;;;;;;4426298;28;657594;-72
2021/10/24 05:28:59;;;;;;;119.23;28.53;;;3.00;99.90;;;;;;4441703;28;658388;-71
2021/10/24 05:31:47;;;;;;;122.83;31.10;;;3.00;99.90;;;;;;4421795;28;659194;-72
2021/10/24 05:34:36;;;;;;;141.13;31.37;;;3.00;99.90;;;;;;4441889;28;658910;-72
2021/10/24 05:37:24;;;;;;;116.10;30.07;;;3.00;99.90;;;;;;4407571;28;659519;-72
2021/10/24 05:40:13;;;;;;;119.50;29.73;;;3.10;99.90;;;;;;4416978;28;659167;-71
2021/10/24 05:43:01;;;;;;;86.00;25.02;;;3.10;99.90;;;;;;4413792;28;658579;-72
2021/10/24 05:45:49;;;;;;;81.20;27.80;;;3.00;99.90;;;;;;4443715;28;658650;-72
2021/10/24 05:48:37;;;;;;;94.17;27.10;;;3.00;99.90;;;;;;4411308;28;657838;-72
2021/10/24 05:51:26;;;;;;;125.87;22.17;;;3.00;99.90;;;;;;4435573;28;658107;-71
2021/10/24 05:54:14;;;;;;;96.47;28.63;;;3.00;99.90;;;;;;4416121;28;658649;-71
2021/10/24 05:57:01;;;;;;;90.13;28.27;;;3.00;99.90;;;;;;4415744;28;657955;-72
2021/10/24 05:59:49;;;;;;;85.40;29.30;;;3.00;99.90;;;;;;4431607;28;657919;-72
2021/10/24 06:02:36;;;;;;;100.25;30.00;;;3.10;99.90;;;;;;4417994;28;658303;-72
2021/10/24 06:05:25;;;;;;;110.83;27.10;;;3.20;99.90;;;;;;4438142;28;658896;-71
2021/10/24 06:08:21;;;;;;;136.73;29.47;;;3.20;99.90;;;;;;4414778;28;659961;-71
2021/10/24 06:11:18;;;;;;;146.33;28.47;;;3.20;99.90;;;;;;4406888;28;659703;-71
2021/10/24 06:14:06;;;;;;;101.77;28.40;;;3.20;99.90;;;;;;4388814;28;659304;-72
2021/10/24 06:16:53;;;;;;;88.23;29.33;;;3.20;99.90;;;;;;4430560;28;658839;-72
2021/10/24 06:19:44;;;;;;;123.27;29.73;;;3.20;99.90;;;;;;4417913;28;657589;-72
2021/10/24 06:22:31;;;;;;;111.53;33.23;;;3.20;99.90;;;;;;4418104;28;659519;-72
2021/10/24 06:25:20;;;;;;;135.10;31.67;;;3.20;99.90;;;;;;4441765;28;659967;-71
2021/10/24 06:28:08;;;;;;;142.20;31.23;;;3.10;99.90;;;;;;4421047;28;659485;-71
2021/10/24 06:30:56;;;;;;;84.10;29.37;;;3.10;99.90;;;;;;4426072;28;658387;-73
2021/10/24 06:33:44;;;;;;;110.80;28.00;;;3.10;99.90;;;;;;4447908;28;658232;-71
2021/10/24 06:36:32;;;;;;;103.20;30.03;;;3.20;99.90;;;;;;4417971;28;658862;-71
2021/10/24 06:39:19;;;;;;;98.17;27.43;;;3.20;99.90;;;;;;4442256;28;659234;-71
2021/10/24 06:42:08;;;;;;;95.57;31.20;;;3.20;99.90;;;;;;4417600;28;657330;-71
2021/10/24 06:44:56;;;;;;;80.07;30.57;;;3.20;99.90;;;;;;4420064;28;657526;-72
2021/10/24 06:47:43;;;;;;;92.47;29.97;;;3.20;99.90;;;;;;4442595;28;657762;-72
2021/10/24 06:50:31;;;;;;;69.37;26.00;;;3.30;99.90;;;;;;4421327;28;657470;-71
2021/10/24 06:53:19;;;;;;;74.30;27.38;;;3.20;99.90;;;;;;4443137;28;658054;-71
2021/10/24 06:56:06;;;;;;;84.13;32.03;;;3.20;99.90;;;;;;4418869;28;657527;-72
2021/10/24 06:58:55;;;;;;;106.40;33.20;;;3.30;99.90;;;;;;4437033;28;658879;-71
2021/10/24 07:01:43;;;;;;;97.33;33.77;;;3.30;99.90;;;;;;4415584;28;659465;-71
2021/10/24 07:04:30;;;;;;;83.43;30.67;;;3.30;99.90;;;;;;4420017;28;657434;-72
2021/10/24 07:07:23;;;;;;;97.50;33.20;;;3.30;99.90;;;;;;4444619;28;657445;-71
2021/10/24 07:10:11;;;;;;;84.13;32.93;;;3.30;99.90;;;;;;4395778;28;657525;-71
2021/10/24 07:12:59;;;;;;;94.60;34.07;;;3.40;99.90;;;;;;4438925;28;658269;-70
2021/10/24 07:15:48;;;;;;;89.90;31.00;;;3.40;99.90;;;;;;4426345;28;657748;-71
2021/10/24 07:18:35;;;;;;;77.80;31.85;;;3.40;99.90;;;;;;4425653;28;658058;-72
2021/10/24 07:21:23;;;;;;;84.43;33.93;;;3.40;99.90;;;;;;4444849;28;657514;-71
2021/10/24 07:24:11;;;;;;;80.23;33.30;;;3.50;99.90;;;;;;4422286;28;657898;-71
2021/10/24 07:26:58;;;;;;;80.77;34.30;;;3.50;99.90;;;;;;4439066;28;658503;-71
2021/10/24 07:29:46;;;;;;;91.47;33.27;;;3.60;99.90;;;;;;4414585;28;657361;-71
2021/10/24 07:32:36;;;;;;;81.55;33.80;;;3.70;99.90;;;;;;4437799;28;658425;-71
2021/10/24 07:35:23;;;;;;;79.63;32.87;;;3.80;99.90;;;;;;4411287;28;658703;-70
2021/10/24 07:38:13;;;;;;;82.07;33.43;;;3.90;99.90;;;;;;4419815;28;658005;-70
2021/10/24 07:41:01;;;;;;;78.32;30.98;;;3.90;99.90;;;;;;4416789;28;657811;-72
2021/10/24 07:43:48;;;;;;;85.53;32.00;;;3.90;99.90;;;;;;4445227;28;657902;-71
2021/10/24 07:46:37;;;;;;;72.83;30.13;;;3.90;99.90;;;;;;4414318;28;657743;-70
2021/10/24 07:49:27;;;;;;;81.15;29.90;;;4.00;99.90;;;;;;4437931;28;657696;-70
2021/10/24 07:52:14;;;;;;;87.70;29.03;;;4.00;99.90;;;;;;4411310;28;657356;-70
2021/10/24 07:55:02;;;;;;;81.57;34.63;;;4.10;99.90;;;;;;4414472;28;657814;-70
2021/10/24 07:57:50;;;;;;;89.63;35.60;;;4.20;99.90;;;;;;4436236;28;657753;-70
2021/10/24 08:00:37;;;;;;;82.17;31.93;;;4.30;99.90;;;;;;4412834;28;659011;-71
2021/10/24 08:03:25;;;;;;;74.93;29.70;;;4.30;99.90;;;;;;4437833;28;657663;-70
2021/10/24 08:06:16;;;;;;;77.63;33.53;;;4.20;99.90;;;;;;4417166;28;658424;-71
2021/10/24 08:09:04;;;;;;;76.05;34.78;;;4.30;99.90;;;;;;4411061;28;658673;-71
2021/10/24 08:11:52;;;;;;;81.63;33.07;;;4.50;99.90;;;;;;4417788;28;658374;-70
2021/10/24 08:14:39;;;;;;;73.07;32.00;;;4.70;99.90;;;;;;4438034;28;658046;-71
2021/10/24 08:17:27;;;;;;;80.00;34.53;;;4.90;99.90;;;;;;4419260;28;657589;-72
2021/10/24 08:20:15;;;;;;;72.97;31.50;;;5.20;99.90;;;;;;4436584;28;657311;-70
2021/10/24 08:23:04;;;;;;;68.23;29.13;;;5.70;99.90;;;;;;4419284;28;658583;-71
2021/10/24 08:25:52;;;;;;;67.53;29.73;;;5.90;99.90;;;;;;4425151;28;657733;-72
2021/10/24 08:28:39;;;;;;;69.13;31.23;;;6.00;99.90;;;;;;4447980;28;658822;-71
2021/10/24 08:31:29;;;;;;;71.17;30.00;;;5.90;99.90;;;;;;4420694;28;658683;-71
2021/10/24 08:34:17;;;;;;;63.20;27.43;;;6.20;99.90;;;;;;4421756;28;657862;-71
2021/10/24 08:37:05;;;;;;;68.57;29.40;;;6.40;99.90;;;;;;4438395;28;658075;-71
2021/10/24 08:39:55;;;;;;;67.07;29.60;;;6.40;99.90;;;;;;4414745;28;659179;-70
2021/10/24 08:42:43;;;;;;;60.53;29.00;;;6.60;99.90;;;;;;4414616;28;658915;-71
2021/10/24 08:45:31;;;;;;;62.53;26.17;;;6.70;99.90;;;;;;4424641;28;657719;-72
2021/10/24 08:48:19;;;;;;;66.77;28.33;;;6.70;99.90;;;;;;4439840;28;657988;-71
2021/10/24 08:51:06;;;;;;;78.13;29.10;;;6.90;99.90;;;;;;4419714;28;658012;-71
2021/10/24 08:53:54;;;;;;;56.57;22.67;;;7.30;99.90;;;;;;4439767;28;658701;-70
2021/10/24 08:56:43;;;;;;;63.33;27.23;;;7.60;95.30;;;;;;4415308;28;657420;-71
2021/10/24 08:59:30;;;;;;;64.67;28.47;;;7.80;1.00;;;;;;4423689;28;658005;-72
2021/10/24 09:02:18;;;;;;;54.80;23.40;;;7.80;1.00;;;;;;4447816;28;657488;-71
2021/10/24 09:05:07;;;;;;;58.20;24.87;;;8.00;1.00;;;;;;4430646;28;656869;-71
2021/10/24 09:07:55;;;;;;;60.13;25.87;;;8.30;99.90;;;;;;4447079;28;656734;-71
2021/10/24 09:10:45;;;;;;;51.53;20.67;;;8.60;99.90;;;;;;4415907;28;658563;-72
2021/10/24 09:13:36;;;;;;;47.90;20.60;;;8.80;99.90;;;;;;4424730;28;658698;-71
2021/10/24 09:16:23;;;;;;;53.33;22.83;;;8.80;96.50;;;;;;4427307;28;658097;-71
2021/10/24 09:19:15;;;;;;;45.83;20.80;;;9.10;1.00;;;;;;4433133;28;657697;-72
2021/10/24 09:22:17;;;;;;;47.10;20.07;;;9.10;1.00;;;;;;4421878;28;657691;-71
2021/10/24 09:25:12;;;;;;;38.83;16.53;;;9.10;1.00;;;;;;4417864;28;656803;-71
2021/10/24 09:28:00;;;;;;;36.60;16.00;;;9.30;1.00;;;;;;4416264;28;656696;-72
2021/10/24 09:30:58;;;;;;;43.30;17.93;;;9.30;1.00;;;;;;4418099;28;657564;-72
2021/10/24 09:33:47;;;;;;;43.47;16.47;;;9.50;1.00;;;;;;4396732;28;657393;-71
2021/10/24 09:36:35;;;;;;;39.97;17.17;;;9.60;1.00;;;;;;4444072;28;656839;-70
2021/10/24 09:39:26;;;;;;;34.63;13.50;;;9.60;1.00;;;;;;4423673;28;657876;-71
2021/10/24 09:42:16;;;;;;;35.83;15.20;;;10.10;1.00;;;;;;4421748;28;658094;-71
2021/10/24 09:45:06;;;;;;;25.50;8.87;;;10.40;99.90;;;;;;4411430;28;658071;-70
2021/10/24 09:47:55;;;;;;;24.60;9.77;;;10.50;99.90;;;;;;4420236;28;658898;-71
2021/10/24 09:50:47;;;;;;;29.23;10.27;;;10.10;99.90;;;;;;4420554;28;658669;-72
2021/10/24 09:53:35;;;;;;;33.53;12.33;;;10.00;1.00;;;;;;4415856;28;658849;-71
2021/10/24 09:56:26;;;;;;;22.57;10.27;;;10.30;1.00;;;;;;4419480;28;658676;-72
2021/10/24 09:59:16;;;;;;;26.83;10.87;;;10.60;99.90;;;;;;4417675;28;658729;-71
2021/10/24 10:02:04;;;;;;;29.63;11.63;;;10.90;1.00;;;;;;4411592;28;660006;-71
2021/10/24 10:04:53;;;;;;;21.33;7.70;;;11.40;1.00;;;;;;4419934;28;657717;-72
2021/10/24 10:07:41;;;;;;;18.95;7.35;;;12.00;92.10;;;;;;4439739;28;657012;-72
2021/10/24 10:10:29;;;;;;;22.53;7.10;;;12.50;99.90;;;;;;4450504;28;658683;-72
2021/10/24 10:13:19;;;;;;;22.90;7.27;;;12.40;99.90;;;;;;4428214;28;657558;-71
2021/10/24 10:16:08;;;;;;;18.23;6.40;;;12.50;99.90;;;;;;4425299;28;657639;-73
2021/10/24 10:19:03;;;;;;;15.13;4.33;;;12.20;1.00;;;;;;4428356;28;657628;-72
2021/10/24 10:21:52;;;;;;;15.20;4.63;;;13.00;1.00;;;;;;4406294;28;657313;-73
2021/10/24 10:24:44;;;;;;;13.30;4.93;;;12.90;1.00;;;;;;4445420;28;656406;-72
2021/10/24 10:27:40;;;;;;;24.70;6.63;;;13.50;1.00;;;;;;4430292;28;656537;-72
2021/10/24 10:30:38;;;;;;;21.97;6.53;;;13.80;1.00;;;;;;4402843;28;657019;-72
2021/10/24 10:33:30;;;;;;;18.77;5.73;;;13.60;99.90;;;;;;4407611;28;656348;-73
2021/10/24 10:36:18;;;;;;;22.30;7.13;;;13.90;99.90;;;;;;4411000;28;658253;-72
2021/10/24 10:39:23;;;;;;;17.50;5.77;;;14.40;36.30;;;;;;4414898;28;657586;-73
2021/10/24 10:42:48;;;;;;;13.80;5.20;;;14.60;1.00;;;;;;4386405;28;658705;-72
2021/10/24 10:45:43;;;;;;;17.87;4.27;;;15.00;1.00;;;;;;4389004;28;656774;-73
2021/10/24 10:48:39;;;;;;;14.50;4.17;;;14.30;1.00;;;;;;4389019;28;656944;-72
2021/10/24 10:51:29;;;;;;;13.70;4.23;;;13.90;99.90;;;;;;4387331;28;657017;-73
2021/10/24 10:54:19;;;;;;;16.43;3.50;;;14.00;99.90;;;;;;4406044;28;659175;-72
2021/10/24 10:57:07;;;;;;;14.23;3.07;;;14.00;99.90;;;;;;4410138;28;657622;-73
2021/10/24 10:59:55;;;;;;;8.53;2.70;;;13.90;99.90;;;;;;4429312;28;657469;-72
2021/10/24 11:02:42;;;;;;;12.10;2.67;;;14.30;99.90;;;;;;4407699;28;657375;-72
2021/10/24 11:05:34;;;;;;;11.30;3.77;;;13.90;99.90;;;;;;4433242;28;657983;-73
2021/10/24 11:08:45;;;;;;;11.90;3.63;;;14.00;99.90;;;;;;4426278;28;658320;-72
2021/10/24 11:11:58;;;;;;;13.45;3.80;;;13.60;99.90;;;;;;4394116;28;658229;-72
2021/10/24 11:14:46;;;;;;;13.17;3.60;;;13.90;99.90;;;;;;4403786;28;658407;-73
2021/10/24 11:17:35;;;;;;;8.77;2.97;;;14.60;99.90;;;;;;4446371;28;657891;-72
2021/10/24 11:20:38;;;;;;;11.00;3.17;;;14.90;99.90;;;;;;4424915;28;657923;-72
2021/10/24 11:23:26;;;;;;;8.80;3.00;;;15.90;99.90;;;;;;4428000;28;657776;-73
2021/10/24 11:26:13;;;;;;;11.97;3.07;;;17.60;9.10;;;;;;4433966;28;657573;-72
2021/10/24 11:29:05;;;;;;;7.70;2.83;;;18.50;1.00;;;;;;4411450;28;657017;-73
2021/10/24 11:32:17;;;;;;;8.57;2.87;;;18.80;1.00;;;;;;4408833;28;656456;-72
2021/10/24 11:35:17;;;;;;;9.07;2.70;;;19.80;1.00;;;;;;4431334;28;655152;-73
2021/10/24 11:38:07;;;;;;;14.73;5.13;;;19.70;99.90;;;;;;4443313;28;655509;-73
2021/10/24 11:40:55;;;;;;;18.47;6.17;;;19.30;99.90;;;;;;4441553;28;657907;-72
2021/10/24 11:43:42;;;;;;;16.83;5.77;;;19.70;99.90;;;;;;4444894;28;658460;-73
2021/10/24 11:46:32;;;;;;;18.53;6.13;;;19.70;99.90;;;;;;4459502;28;657648;-73
2021/10/24 11:49:20;;;;;;;17.37;5.20;;;19.90;99.90;;;;;;4468197;28;657400;-73
2021/10/24 11:52:07;;;;;;;18.47;5.83;;;19.40;99.90;;;;;;4444550;28;658968;-73
2021/10/24 11:55:06;;;;;;;15.87;4.30;;;20.10;99.90;;;;;;4467096;28;657920;-73
2021/10/24 11:58:04;;;;;;;14.07;4.80;;;19.50;99.90;;;;;;4444630;28;657658;-73
2021/10/24 12:00:52;;;;;;;15.60;4.47;;;19.40;99.90;;;;;;4421459;28;658552;-73
2021/10/24 12:03:42;;;;;;;16.97;4.50;;;19.30;99.90;;;;;;4466990;28;657485;-73
2021/10/24 12:06:49;;;;;;;13.10;4.00;;;19.90;99.90;;;;;;4427974;28;657367;-72
2021/10/24 12:09:39;;;;;;;14.10;4.20;;;20.80;99.90;;;;;;4404081;28;658564;-73
2021/10/24 12:12:35;;;;;;;9.77;3.17;;;21.70;99.90;;;;;;4430920;28;657733;-71
2021/10/24 12:15:34;;;;;;;9.25;2.90;;;22.40;99.90;;;;;;4404558;28;657024;-73
2021/10/24 12:18:22;;;;;;;9.45;3.17;;;23.00;99.90;;;;;;4404643;28;656733;-72
2021/10/24 12:21:11;;;;;;;14.85;3.70;;;22.50;99.90;;;;;;4450671;28;657199;-72
2021/10/24 12:24:17;;;;;;;11.93;3.70;;;21.70;99.90;;;;;;4430860;28;658437;-72
2021/10/24 12:27:08;;;;;;;11.00;3.70;;;22.20;99.90;;;;;;4426648;28;657686;-72
2021/10/24 12:30:04;;;;;;;8.50;2.87;;;22.20;99.90;;;;;;4405290;28;658229;-73
2021/10/24 12:32:55;;;;;;;9.67;3.00;;;23.20;99.90;;;;;;4432236;28;656846;-72
2021/10/24 12:35:43;;;;;;;9.37;3.33;;;23.00;99.90;;;;;;4443076;28;657973;-72
2021/10/24 12:38:48;;;;;;;8.83;2.97;;;22.50;98.70;;;;;;4449134;28;656331;-73
2021/10/24 12:41:37;;;;;;;7.60;2.77;;;22.20;87.70;;;;;;4448271;28;656857;-73
2021/10/24 12:44:34;;;;;;;9.33;3.03;;;22.90;73.10;;;;;;4467598;28;657317;-72
2021/10/24 12:47:22;;;;;;;11.43;2.90;;;23.00;62.80;;;;;;4421627;28;657494;-72
2021/10/24 12:50:10;;;;;;;11.93;3.03;;;22.70;60.20;;;;;;4465777;28;657487;-72
2021/10/24 12:53:04;;;;;;;12.37;3.53;;;23.10;54.30;;;;;;4442157;28;659078;-72
2021/10/24 12:56:02;;;;;;;10.50;3.20;;;24.00;56.50;;;;;;4420252;28;657590;-72
2021/10/24 12:58:50;;;;;;;13.07;3.30;;;24.20;40.90;;;;;;4443522;28;657772;-72
2021/10/24 13:01:38;;;;;;;8.20;2.50;;;25.00;23.80;;;;;;4447710;28;658088;-72
2021/10/24 13:04:26;;;;;;;12.13;3.27;;;25.40;20.60;;;;;;4454113;28;656316;-73
2021/10/24 13:07:13;;;;;;;8.03;2.97;;;25.30;11.10;;;;;;4452489;28;658872;-72
2021/10/24 13:10:01;;;;;;;11.10;3.27;;;25.10;3.20;;;;;;4430812;28;656923;-72
2021/10/24 13:12:50;;;;;;;7.57;3.67;;;25.00;1.00;;;;;;4441100;28;657620;-73
2021/10/24 13:15:43;;;;;;;14.60;3.83;;;25.10;1.00;;;;;;4419163;28;656201;-72
2021/10/24 13:18:31;;;;;;;11.97;3.03;;;25.20;1.00;;;;;;4397860;28;656261;-72
2021/10/24 13:24:24;;;;;;;9.77;3.60;;;24.80;1.00;;;;;;4420312;28;655715;-72
2021/10/24 13:27:11;;;;;;;8.13;3.33;;;24.30;1.00;;;;;;4423873;28;654993;-72
2021/10/24 13:30:00;;;;;;;11.00;3.80;;;23.60;1.00;;;;;;4439707;28;656605;-72
2021/10/24 13:32:49;;;;;;;10.30;3.40;;;22.70;1.00;;;;;;4423829;28;656555;-72
2021/10/24 13:35:36;;;;;;;8.93;3.03;;;22.30;1.00;;;;;;4416570;28;656915;-72
2021/10/24 13:38:24;;;;;;;8.37;2.80;;;22.30;1.00;;;;;;4439263;28;656072;-72
2021/10/24 13:41:12;;;;;;;11.03;3.40;;;22.40;1.00;;;;;;4419032;28;655862;-72
2021/10/24 13:44:00;;;;;;;9.67;3.17;;;22.50;1.00;;;;;;4434073;28;656832;-72
2021/10/24 13:46:49;;;;;;;7.17;2.93;;;22.00;1.00;;;;;;4419644;28;656424;-71
2021/10/24 13:49:36;;;;;;;7.37;2.80;;;22.60;1.00;;;;;;4420693;28;655968;-72
2021/10/24 13:52:24;;;;;;;7.20;2.73;;;22.90;1.00;;;;;;4434205;28;655749;-72
2021/10/24 13:55:11;;;;;;;10.40;3.17;;;23.80;1.00;;;;;;4420682;28;657337;-72
2021/10/24 13:57:59;;;;;;;11.37;3.20;;;24.40;1.00;;;;;;4440246;28;656883;-72
2021/10/24 14:00:47;;;;;;;11.23;3.07;;;25.70;1.00;;;;;;4425751;28;656538;-72
2021/10/24 14:03:36;;;;;;;8.60;3.17;;;26.30;1.00;;;;;;4442723;28;656109;-73
2021/10/24 14:06:24;;;;;;;10.87;3.30;;;26.70;1.00;;;;;;4418999;28;655787;-73
2021/10/24 14:09:11;;;;;;;6.93;3.27;;;26.70;1.00;;;;;;4419761;28;657975;-73
2021/10/24 14:11:59;;;;;;;12.90;3.47;;;26.90;1.00;;;;;;4443146;28;656065;-73
2021/10/24 14:14:47;;;;;;;10.23;3.20;;;26.90;1.00;;;;;;4417940;28;656911;-72
2021/10/24 14:17:34;;;;;;;9.73;3.10;;;27.40;1.00;;;;;;4434147;28;656255;-72
2021/10/24 14:20:25;;;;;;;10.30;3.22;;;28.10;1.00;;;;;;4420582;28;656470;-72
2021/10/24 14:23:12;;;;;;;10.03;3.47;;;27.40;1.00;;;;;;4430918;28;657153;-71